Washington Executive test (W32)
Clinton, MD
Field Elevation: 249
Lat: 38°44.89N  Long: 76°55.97W
CTAF/Unicom Freq: 122.8000
   
    
Weather Advisories
12/20/2014 02:13 Z
Altimeter 30.25" Hg
Wind 326° @ 5 KT
Gusts 8 KT
Temperature 1° C (34° F)
Dewpoint -16° C (3° F)
Relative Humidity 26%
Density Altitude -2,038 feet
Condensation Altitude 8,909 feet
Wind Chill -2° C (28° F)
  Wind and Runways
Indicated Runway = 5
History
 
 
More Info
All DigiWx sites map
Weather Radar
NOAA Forecast
 
Airport IQ 5010
(HMIEM) Shock Trauma Ctr
(26N) Ocean City
 
about DigiWx
 
FAA Disclaimer: The data displayed is for advisory purposes only and is not to be used for flight planning or operations. For official data, please call (not available) to hear the current automated AWOS voice message.
  METAR W32 200213Z AUTO 33005G08KT 01/M16 A3025